Time;durP1;ratioP1;P1;durP2;ratioP2;P2;SDS_P1;SDS_P2;PMS_P1;PMS_P2;Temp;Humidity;BMP_temperature;BMP_pressure;BME280_temperature;BME280_humidity;BME280_pressure;Samples;Min_cycle;Max_cycle;Signal;HPM_P1;HPM_P2
2022/03/13 00:00:29;;;;;;;17.73;10.17;;;;;;;;;;5114532;28;20397;-56
2022/03/13 00:02:55;;;;;;;15.23;9.30;;;;;;;;;;5114360;28;20420;-56
2022/03/13 00:05:22;;;;;;;15.73;8.77;;;;;;;;;;5114406;28;20466;-55
2022/03/13 00:07:48;;;;;;;14.90;9.70;;;;;;;;;;5096658;28;20778;-59
2022/03/13 00:10:19;;;;;;;16.27;10.40;;;;;;;;;;5113293;28;20424;-61
2022/03/13 00:12:48;;;;;;;22.73;9.70;;;;;;;;;;5096029;28;20417;-57
2022/03/13 00:15:15;;;;;;;18.27;9.60;;;;;;;;;;5114229;28;20803;-59
2022/03/13 00:17:42;;;;;;;15.80;9.57;;;;;;;;;;5114094;28;20402;-56
2022/03/13 00:20:08;;;;;;;20.73;10.60;;;;;;;;;;5096099;28;20429;-53
2022/03/13 00:22:35;;;;;;;17.07;10.07;;;;;;;;;;5095678;28;20409;-55
2022/03/13 00:25:03;;;;;;;14.43;10.07;;;;;;;;;;5113839;28;20468;-55
2022/03/13 00:27:34;;;;;;;19.53;10.03;;;;;;;;;;5113791;28;20952;-56
2022/03/13 00:30:00;;;;;;;17.93;9.77;;;;;;;;;;5113869;28;20511;-56
2022/03/13 00:32:29;;;;;;;15.10;10.00;;;;;;;;;;5095361;28;20408;-54
2022/03/13 00:34:55;;;;;;;15.30;9.97;;;;;;;;;;5113712;28;20481;-54
2022/03/13 00:37:21;;;;;;;18.13;10.10;;;;;;;;;;5113594;28;20411;-57
2022/03/13 00:39:49;;;;;;;15.33;9.57;;;;;;;;;;5113759;28;20461;-54
2022/03/13 00:42:16;;;;;;;14.80;9.40;;;;;;;;;;5095484;28;20503;-55
2022/03/13 00:44:43;;;;;;;11.40;8.77;;;;;;;;;;5113664;28;20492;-56
2022/03/13 00:47:09;;;;;;;14.97;9.63;;;;;;;;;;5113791;28;20425;-55
2022/03/13 00:49:35;;;;;;;13.80;8.90;;;;;;;;;;5095064;28;20455;-54
2022/03/13 00:52:02;;;;;;;13.60;8.93;;;;;;;;;;5113391;28;20427;-54
2022/03/13 00:54:28;;;;;;;12.90;8.60;;;;;;;;;;5113576;28;20417;-55
2022/03/13 00:56:54;;;;;;;14.00;9.03;;;;;;;;;;5095127;28;20417;-54
2022/03/13 00:59:21;;;;;;;12.17;8.60;;;;;;;;;;5113553;28;20397;-54
2022/03/13 01:01:47;;;;;;;14.63;9.50;;;;;;;;;;5113336;28;20424;-53
2022/03/13 01:04:14;;;;;;;13.00;8.60;;;;;;;;;;5095021;28;20489;-55
2022/03/13 01:06:41;;;;;;;14.10;9.10;;;;;;;;;;5095168;28;20419;-54
2022/03/13 01:09:07;;;;;;;13.67;8.53;;;;;;;;;;5113230;28;20421;-54
2022/03/13 01:11:33;;;;;;;13.30;9.43;;;;;;;;;;5094948;28;20478;-56
2022/03/13 01:13:59;;;;;;;14.53;9.17;;;;;;;;;;5113119;28;20413;-55
2022/03/13 01:16:27;;;;;;;16.13;9.90;;;;;;;;;;5113222;28;20412;-54
2022/03/13 01:18:55;;;;;;;13.70;9.30;;;;;;;;;;5113058;28;20532;-54
2022/03/13 01:21:21;;;;;;;13.27;9.37;;;;;;;;;;5112713;28;20405;-56
2022/03/13 01:24:02;;;;;;;16.27;8.77;;;;;;;;;;5113058;28;20829;-56
2022/03/13 01:26:30;;;;;;;14.13;9.17;;;;;;;;;;5113005;28;20431;-56
2022/03/13 01:28:57;;;;;;;17.70;9.57;;;;;;;;;;5112871;28;20401;-56
2022/03/13 01:31:24;;;;;;;14.83;8.40;;;;;;;;;;5113058;28;20416;-55
2022/03/13 01:33:50;;;;;;;21.30;8.90;;;;;;;;;;5094646;28;20413;-55
2022/03/13 01:36:16;;;;;;;14.90;8.80;;;;;;;;;;5112977;28;20476;-54
2022/03/13 01:38:43;;;;;;;14.70;9.70;;;;;;;;;;5112847;28;20405;-51
2022/03/13 01:41:09;;;;;;;15.37;9.20;;;;;;;;;;5113095;28;20504;-57
2022/03/13 01:43:35;;;;;;;16.17;9.23;;;;;;;;;;5094456;28;20472;-54
2022/03/13 01:46:02;;;;;;;14.73;9.27;;;;;;;;;;5112831;28;20946;-55
2022/03/13 01:48:28;;;;;;;16.00;9.80;;;;;;;;;;5112807;28;20409;-58
2022/03/13 01:50:54;;;;;;;14.17;8.27;;;;;;;;;;5112736;28;20412;-57
2022/03/13 01:53:21;;;;;;;13.20;8.23;;;;;;;;;;5112794;28;20433;-57
2022/03/13 01:55:48;;;;;;;14.00;8.73;;;;;;;;;;5112759;28;20409;-55
2022/03/13 01:58:15;;;;;;;15.10;9.03;;;;;;;;;;5112606;28;20432;-53
2022/03/13 02:00:41;;;;;;;14.50;8.90;;;;;;;;;;5112894;28;20458;-55
2022/03/13 02:03:07;;;;;;;17.30;9.50;;;;;;;;;;5112551;28;20444;-57
2022/03/13 02:05:36;;;;;;;16.43;8.37;;;;;;;;;;5112584;28;20424;-55
2022/03/13 02:08:22;;;;;;;14.30;8.90;;;;;;;;;;5112636;28;20527;-55
2022/03/13 02:10:48;;;;;;;12.87;8.63;;;;;;;;;;5112777;28;20500;-54
2022/03/13 02:13:17;;;;;;;15.17;9.47;;;;;;;;;;5112695;28;20409;-54
2022/03/13 02:15:43;;;;;;;15.33;9.03;;;;;;;;;;5112539;28;20505;-54
2022/03/13 02:18:09;;;;;;;13.57;9.20;;;;;;;;;;5112649;28;20468;-57
2022/03/13 02:20:42;;;;;;;12.60;8.50;;;;;;;;;;5112678;28;20470;-56
2022/03/13 02:23:36;;;;;;;14.00;8.43;;;;;;;;;;5112715;28;20448;-58
2022/03/13 02:26:03;;;;;;;13.80;9.00;;;;;;;;;;5110313;28;20475;-54
2022/03/13 02:28:30;;;;;;;21.30;9.00;;;;;;;;;;5112547;28;20904;-58
2022/03/13 02:30:58;;;;;;;13.27;8.90;;;;;;;;;;5112718;28;20401;-56
2022/03/13 02:33:24;;;;;;;16.80;8.17;;;;;;;;;;5114181;28;20405;-54
2022/03/13 02:35:55;;;;;;;15.10;8.87;;;;;;;;;;5116259;28;20401;-54
2022/03/13 02:38:21;;;;;;;14.70;9.27;;;;;;;;;;5097864;28;20462;-59
2022/03/13 02:40:47;;;;;;;18.80;9.13;;;;;;;;;;5116232;28;20421;-59
2022/03/13 02:43:14;;;;;;;16.73;8.67;;;;;;;;;;5116041;28;20531;-57
2022/03/13 02:45:40;;;;;;;19.63;9.10;;;;;;;;;;5116135;28;20926;-59
2022/03/13 02:48:07;;;;;;;14.97;8.73;;;;;;;;;;5115918;28;20405;-58
2022/03/13 02:50:33;;;;;;;14.37;8.90;;;;;;;;;;5115816;28;20505;-61
2022/03/13 02:53:03;;;;;;;13.37;8.40;;;;;;;;;;5116027;28;20837;-57
2022/03/13 02:55:29;;;;;;;14.27;8.90;;;;;;;;;;5115868;28;20413;-56
2022/03/13 02:57:55;;;;;;;18.63;10.73;;;;;;;;;;5097439;28;20405;-54
2022/03/13 03:00:22;;;;;;;12.03;8.87;;;;;;;;;;5115637;28;20420;-53
2022/03/13 03:02:48;;;;;;;13.50;8.50;;;;;;;;;;5115548;28;20397;-54
2022/03/13 03:05:15;;;;;;;15.10;9.27;;;;;;;;;;5115619;28;20459;-52
2022/03/13 03:07:41;;;;;;;17.17;9.10;;;;;;;;;;5115765;28;20397;-53
2022/03/13 03:10:12;;;;;;;27.13;9.43;;;;;;;;;;5115445;28;20405;-53
2022/03/13 03:12:39;;;;;;;11.97;8.50;;;;;;;;;;5115571;28;20401;-53
2022/03/13 03:15:06;;;;;;;14.37;8.70;;;;;;;;;;5097164;28;20769;-53
2022/03/13 03:17:31;;;;;;;15.37;9.10;;;;;;;;;;5115123;28;20455;-53
2022/03/13 03:19:57;;;;;;;14.53;8.37;;;;;;;;;;5115292;28;20816;-53
2022/03/13 03:22:23;;;;;;;16.70;8.40;;;;;;;;;;5096960;28;20417;-55
2022/03/13 03:24:50;;;;;;;12.90;7.90;;;;;;;;;;5115155;28;20529;-53
2022/03/13 03:27:19;;;;;;;12.40;7.87;;;;;;;;;;5115044;28;20409;-54
2022/03/13 03:29:45;;;;;;;17.53;9.87;;;;;;;;;;5115011;28;20417;-54
2022/03/13 03:32:11;;;;;;;13.43;8.93;;;;;;;;;;5115207;28;20743;-53
2022/03/13 03:34:37;;;;;;;12.40;8.40;;;;;;;;;;5114920;28;20421;-55
2022/03/13 03:37:03;;;;;;;12.37;8.57;;;;;;;;;;5096732;28;20447;-53
2022/03/13 03:39:31;;;;;;;15.53;8.60;;;;;;;;;;5114821;28;20417;-53
2022/03/13 03:41:58;;;;;;;13.70;8.43;;;;;;;;;;5114903;28;20523;-54
2022/03/13 03:44:24;;;;;;;19.90;9.60;;;;;;;;;;5114609;28;20964;-55
2022/03/13 03:46:50;;;;;;;15.40;9.23;;;;;;;;;;5114812;28;20436;-53
2022/03/13 03:49:17;;;;;;;17.80;8.90;;;;;;;;;;5114676;28;20413;-57
2022/03/13 03:51:43;;;;;;;16.63;9.60;;;;;;;;;;5096336;28;20423;-53
2022/03/13 03:54:10;;;;;;;15.27;8.47;;;;;;;;;;5114801;28;20413;-54
2022/03/13 03:56:36;;;;;;;13.83;9.30;;;;;;;;;;5114584;28;20405;-56
2022/03/13 03:59:07;;;;;;;14.07;8.73;;;;;;;;;;5114488;28;20401;-55
2022/03/13 04:01:37;;;;;;;15.60;9.40;;;;;;;;;;5114502;28;20397;-56
2022/03/13 04:04:04;;;;;;;14.70;8.53;;;;;;;;;;5114212;28;20551;-54
2022/03/13 04:06:30;;;;;;;15.30;9.07;;;;;;;;;;5114363;28;20469;-60
2022/03/13 04:09:00;;;;;;;14.40;9.27;;;;;;;;;;5114169;28;20412;-55
2022/03/13 04:11:26;;;;;;;16.07;8.60;;;;;;;;;;5095930;28;20425;-53
2022/03/13 04:13:52;;;;;;;14.33;8.70;;;;;;;;;;5114247;28;20727;-54
2022/03/13 04:16:18;;;;;;;16.43;9.23;;;;;;;;;;5114127;28;20423;-53
2022/03/13 04:18:44;;;;;;;18.30;8.97;;;;;;;;;;5113899;28;20478;-55
2022/03/13 04:21:10;;;;;;;13.30;8.50;;;;;;;;;;5095986;28;20421;-58
2022/03/13 04:23:36;;;;;;;14.30;8.90;;;;;;;;;;5113876;28;20502;-59
2022/03/13 04:26:04;;;;;;;15.90;9.00;;;;;;;;;;5114066;28;20430;-59
2022/03/13 04:28:30;;;;;;;13.10;8.50;;;;;;;;;;5113873;28;20755;-57
2022/03/13 04:30:58;;;;;;;16.60;9.27;;;;;;;;;;5095578;28;20989;-61
2022/03/13 04:33:28;;;;;;;16.90;8.90;;;;;;;;;;5113874;28;20458;-61
2022/03/13 04:35:55;;;;;;;16.57;9.10;;;;;;;;;;5113749;28;20401;-61
2022/03/13 04:38:23;;;;;;;17.43;8.97;;;;;;;;;;5113632;28;20429;-54
2022/03/13 04:40:52;;;;;;;17.90;9.10;;;;;;;;;;5113692;28;20404;-60
2022/03/13 04:43:19;;;;;;;16.07;8.13;;;;;;;;;;5113656;28;20494;-60
2022/03/13 04:45:46;;;;;;;15.00;8.87;;;;;;;;;;5113509;28;20477;-54
2022/03/13 04:48:15;;;;;;;14.20;8.90;;;;;;;;;;5113736;28;20396;-55
2022/03/13 04:50:41;;;;;;;14.13;8.90;;;;;;;;;;5113771;28;20432;-53
2022/03/13 04:53:07;;;;;;;14.03;9.20;;;;;;;;;;5113826;28;20400;-56
2022/03/13 04:55:33;;;;;;;14.90;9.10;;;;;;;;;;5113050;28;20947;-60
2022/03/13 04:57:59;;;;;;;17.40;9.07;;;;;;;;;;5113498;28;20885;-58
2022/03/13 05:00:27;;;;;;;16.30;8.77;;;;;;;;;;5113516;28;20405;-62
2022/03/13 05:02:54;;;;;;;14.87;8.10;;;;;;;;;;5113266;28;20404;-63
2022/03/13 05:05:21;;;;;;;12.33;8.03;;;;;;;;;;5113362;28;20417;-63
2022/03/13 05:07:47;;;;;;;16.03;9.23;;;;;;;;;;5113375;28;20408;-62
2022/03/13 05:10:20;;;;;;;21.50;8.67;;;;;;;;;;5113376;28;20438;-59
2022/03/13 05:12:47;;;;;;;14.37;8.90;;;;;;;;;;5113271;28;20412;-62
2022/03/13 05:15:13;;;;;;;15.13;9.13;;;;;;;;;;5113273;28;20549;-59
2022/03/13 05:17:39;;;;;;;14.33;8.07;;;;;;;;;;5113239;28;20751;-58
2022/03/13 05:20:05;;;;;;;16.30;8.40;;;;;;;;;;5113222;28;20462;-60
2022/03/13 05:22:32;;;;;;;14.47;8.90;;;;;;;;;;5113076;28;20408;-54
2022/03/13 05:24:58;;;;;;;13.57;8.50;;;;;;;;;;5113167;28;20468;-62
2022/03/13 05:27:24;;;;;;;15.30;8.50;;;;;;;;;;5113181;28;20401;-61
2022/03/13 05:29:50;;;;;;;14.23;8.83;;;;;;;;;;5112966;28;20408;-60
2022/03/13 05:32:16;;;;;;;15.70;9.20;;;;;;;;;;5113052;28;20773;-58
2022/03/13 05:34:42;;;;;;;12.70;8.67;;;;;;;;;;5113001;28;20440;-60
2022/03/13 05:37:08;;;;;;;11.00;7.70;;;;;;;;;;5113132;28;20500;-56
2022/03/13 05:39:35;;;;;;;13.90;8.73;;;;;;;;;;5112869;28;20416;-59
2022/03/13 05:42:04;;;;;;;12.60;8.20;;;;;;;;;;5112890;28;20409;-58
2022/03/13 05:44:31;;;;;;;14.30;8.80;;;;;;;;;;5094697;28;20468;-62
2022/03/13 05:46:57;;;;;;;14.77;8.20;;;;;;;;;;5112895;28;20396;-60
2022/03/13 05:49:23;;;;;;;13.87;7.87;;;;;;;;;;5094651;28;20412;-55
2022/03/13 05:51:49;;;;;;;13.97;8.50;;;;;;;;;;5112845;28;20413;-54
2022/03/13 05:54:15;;;;;;;16.47;9.07;;;;;;;;;;5094490;28;20453;-61
2022/03/13 05:56:41;;;;;;;12.57;8.77;;;;;;;;;;5112974;28;20939;-60
2022/03/13 05:59:10;;;;;;;16.03;9.20;;;;;;;;;;5094919;28;20420;-62
2022/03/13 06:01:37;;;;;;;14.57;8.73;;;;;;;;;;5094454;28;20936;-57
2022/03/13 06:04:03;;;;;;;16.43;8.97;;;;;;;;;;5112626;28;20558;-58
2022/03/13 06:06:30;;;;;;;13.30;8.67;;;;;;;;;;5112727;28;20432;-57
2022/03/13 06:08:56;;;;;;;17.50;7.70;;;;;;;;;;5115206;28;20440;-58
2022/03/13 06:11:22;;;;;;;13.70;8.70;;;;;;;;;;5116593;28;20423;-58
2022/03/13 06:13:51;;;;;;;16.33;9.27;;;;;;;;;;5116607;28;20416;-55
2022/03/13 06:16:19;;;;;;;16.90;8.77;;;;;;;;;;5116481;28;20722;-57
2022/03/13 06:18:46;;;;;;;10.47;7.77;;;;;;;;;;5116288;28;20463;-56
2022/03/13 06:21:14;;;;;;;10.20;7.60;;;;;;;;;;5116664;28;20399;-55
2022/03/13 06:23:40;;;;;;;11.27;8.30;;;;;;;;;;5116736;28;20516;-56
2022/03/13 06:26:07;;;;;;;18.90;8.70;;;;;;;;;;5116350;28;20489;-57
2022/03/13 06:28:36;;;;;;;13.50;8.10;;;;;;;;;;5097914;28;20401;-59
2022/03/13 06:31:02;;;;;;;12.93;8.70;;;;;;;;;;5097967;28;20778;-57
2022/03/13 06:33:30;;;;;;;11.10;8.27;;;;;;;;;;5116174;28;20914;-58
2022/03/13 06:35:56;;;;;;;12.33;8.90;;;;;;;;;;5116123;28;20388;-56
2022/03/13 06:38:22;;;;;;;12.90;8.40;;;;;;;;;;5116033;28;20932;-59
2022/03/13 06:40:48;;;;;;;11.27;8.27;;;;;;;;;;5116025;28;20531;-57
2022/03/13 06:43:14;;;;;;;9.13;7.67;;;;;;;;;;5115986;28;20460;-58
2022/03/13 06:45:40;;;;;;;12.30;7.87;;;;;;;;;;5116199;28;20405;-60
2022/03/13 06:48:06;;;;;;;16.40;8.73;;;;;;;;;;5115953;28;20915;-60
2022/03/13 06:50:32;;;;;;;12.30;8.67;;;;;;;;;;5097698;28;20496;-61
2022/03/13 06:52:59;;;;;;;12.83;8.20;;;;;;;;;;5115877;28;20432;-55
2022/03/13 06:55:25;;;;;;;16.87;8.80;;;;;;;;;;5115897;28;20415;-59
2022/03/13 06:57:51;;;;;;;16.60;9.63;;;;;;;;;;5115884;28;20412;-55
2022/03/13 07:00:18;;;;;;;15.70;8.10;;;;;;;;;;5115705;28;20478;-54
2022/03/13 07:02:44;;;;;;;17.17;8.80;;;;;;;;;;5115659;28;20496;-57
2022/03/13 07:05:10;;;;;;;14.53;9.03;;;;;;;;;;5097418;28;20483;-58
2022/03/13 07:07:36;;;;;;;21.80;9.70;;;;;;;;;;5115514;28;20902;-59
2022/03/13 07:10:04;;;;;;;13.47;9.33;;;;;;;;;;5115446;28;20416;-59
2022/03/13 07:12:30;;;;;;;13.63;8.80;;;;;;;;;;5115566;28;20509;-59
2022/03/13 07:14:56;;;;;;;13.53;8.93;;;;;;;;;;5115309;28;20412;-58
2022/03/13 07:17:22;;;;;;;16.57;9.00;;;;;;;;;;5115387;28;20401;-60
2022/03/13 07:19:48;;;;;;;13.10;8.67;;;;;;;;;;5114452;28;20475;-58
2022/03/13 07:22:15;;;;;;;20.37;10.53;;;;;;;;;;5096776;28;20436;-53
2022/03/13 07:24:42;;;;;;;14.53;9.63;;;;;;;;;;5115341;28;20468;-56
2022/03/13 07:27:08;;;;;;;13.30;8.93;;;;;;;;;;5097173;28;20831;-58
2022/03/13 07:29:35;;;;;;;13.30;9.00;;;;;;;;;;5115096;28;20421;-55
2022/03/13 07:32:01;;;;;;;14.30;9.57;;;;;;;;;;5115014;28;20886;-53
2022/03/13 07:34:28;;;;;;;15.97;10.23;;;;;;;;;;5096662;28;20455;-53
2022/03/13 07:36:54;;;;;;;15.33;10.30;;;;;;;;;;5115032;28;20916;-57
2022/03/13 07:39:24;;;;;;;16.97;9.60;;;;;;;;;;5114969;28;20462;-56
2022/03/13 07:41:51;;;;;;;20.77;9.10;;;;;;;;;;5114934;28;20401;-55
2022/03/13 07:44:17;;;;;;;13.70;9.40;;;;;;;;;;5096251;28;20480;-57
2022/03/13 07:46:46;;;;;;;14.23;10.40;;;;;;;;;;5114752;28;20404;-58
2022/03/13 07:49:12;;;;;;;14.37;9.00;;;;;;;;;;5114908;28;20409;-56
2022/03/13 07:51:38;;;;;;;15.27;9.27;;;;;;;;;;5114769;28;20393;-57
2022/03/13 07:54:04;;;;;;;12.80;8.83;;;;;;;;;;5114584;28;20991;-53
2022/03/13 07:56:30;;;;;;;13.17;9.57;;;;;;;;;;5114570;28;20398;-57
2022/03/13 07:58:56;;;;;;;15.47;9.47;;;;;;;;;;5096209;28;20764;-57
2022/03/13 08:01:23;;;;;;;12.70;8.90;;;;;;;;;;5114441;28;20405;-55
2022/03/13 08:03:51;;;;;;;12.00;8.83;;;;;;;;;;5114292;28;20468;-57
2022/03/13 08:06:17;;;;;;;13.70;9.30;;;;;;;;;;5114338;28;20408;-54
2022/03/13 08:08:46;;;;;;;13.57;9.00;;;;;;;;;;5114343;28;20397;-58
2022/03/13 08:11:12;;;;;;;13.70;9.47;;;;;;;;;;5114522;28;20421;-55
2022/03/13 08:13:38;;;;;;;12.20;9.03;;;;;;;;;;5114319;28;20405;-59
2022/03/13 08:16:04;;;;;;;15.40;9.27;;;;;;;;;;5114188;28;20409;-60
2022/03/13 08:18:30;;;;;;;13.83;9.40;;;;;;;;;;5113864;28;20463;-58
2022/03/13 08:20:56;;;;;;;14.50;10.03;;;;;;;;;;5114096;28;20437;-60
2022/03/13 08:23:23;;;;;;;12.50;9.40;;;;;;;;;;5114007;28;20448;-54
2022/03/13 08:25:49;;;;;;;14.80;10.10;;;;;;;;;;5113938;28;20416;-58
2022/03/13 08:28:15;;;;;;;17.10;9.23;;;;;;;;;;5113938;28;20397;-58
2022/03/13 08:30:45;;;;;;;12.40;9.20;;;;;;;;;;5095624;28;20851;-55
2022/03/13 08:33:11;;;;;;;11.63;8.37;;;;;;;;;;5114010;28;20393;-63
2022/03/13 08:35:37;;;;;;;12.63;9.40;;;;;;;;;;5095711;28;20539;-58
2022/03/13 08:38:03;;;;;;;14.07;9.30;;;;;;;;;;5113762;28;20925;-57
2022/03/13 08:40:30;;;;;;;12.10;9.40;;;;;;;;;;5113698;28;20445;-57
2022/03/13 08:42:56;;;;;;;15.20;10.17;;;;;;;;;;5113977;28;20439;-58
2022/03/13 08:45:23;;;;;;;10.97;8.50;;;;;;;;;;5113585;28;20468;-57
2022/03/13 08:47:52;;;;;;;12.63;9.70;;;;;;;;;;5113682;28;20437;-58
2022/03/13 08:50:19;;;;;;;14.83;9.53;;;;;;;;;;5113572;28;20409;-58
2022/03/13 08:52:45;;;;;;;11.03;9.10;;;;;;;;;;5113535;28;20453;-55
2022/03/13 08:55:15;;;;;;;14.70;9.30;;;;;;;;;;5113615;28;20504;-54
2022/03/13 08:57:42;;;;;;;13.40;8.90;;;;;;;;;;5113635;28;20416;-56
2022/03/13 09:00:10;;;;;;;14.33;9.77;;;;;;;;;;5113629;28;20401;-54
2022/03/13 09:02:36;;;;;;;13.73;9.53;;;;;;;;;;5113253;28;20526;-54
2022/03/13 09:05:03;;;;;;;14.13;9.30;;;;;;;;;;5113064;28;20500;-55
2022/03/13 09:07:29;;;;;;;13.70;9.67;;;;;;;;;;5113329;28;20491;-54
2022/03/13 09:09:58;;;;;;;12.57;9.77;;;;;;;;;;5113159;28;20409;-55
2022/03/13 09:12:24;;;;;;;12.33;9.33;;;;;;;;;;5113096;28;20462;-55
2022/03/13 09:14:50;;;;;;;11.90;10.17;;;;;;;;;;5113127;28;20405;-56
2022/03/13 09:17:19;;;;;;;12.80;10.07;;;;;;;;;;5094736;28;20450;-56
2022/03/13 09:19:45;;;;;;;12.60;9.70;;;;;;;;;;5112883;28;20461;-58
2022/03/13 09:22:14;;;;;;;11.80;9.20;;;;;;;;;;5113246;28;20416;-58
2022/03/13 09:24:40;;;;;;;12.30;9.03;;;;;;;;;;5113162;28;20468;-60
2022/03/13 09:27:06;;;;;;;17.67;10.97;;;;;;;;;;5112867;28;20397;-61
2022/03/13 09:29:32;;;;;;;12.50;10.07;;;;;;;;;;5113199;28;20492;-58
2022/03/13 09:31:58;;;;;;;13.10;9.57;;;;;;;;;;5094727;28;20492;-58
2022/03/13 09:34:24;;;;;;;11.83;9.97;;;;;;;;;;5112815;28;20458;-54
2022/03/13 09:36:53;;;;;;;15.33;9.67;;;;;;;;;;5112689;28;20408;-56
2022/03/13 09:39:19;;;;;;;14.70;10.60;;;;;;;;;;5112896;28;20495;-61
2022/03/13 09:41:45;;;;;;;13.03;9.73;;;;;;;;;;5113606;28;20478;-57
2022/03/13 09:44:11;;;;;;;15.90;10.13;;;;;;;;;;5117370;28;20524;-56
2022/03/13 09:46:38;;;;;;;10.50;9.27;;;;;;;;;;5099180;28;20492;-63
2022/03/13 09:49:04;;;;;;;15.37;10.80;;;;;;;;;;5117019;28;20417;-63
2022/03/13 09:51:30;;;;;;;14.67;10.63;;;;;;;;;;5117067;28;20473;-61
2022/03/13 09:53:57;;;;;;;13.20;9.70;;;;;;;;;;5116878;28;20419;-55
2022/03/13 09:56:23;;;;;;;20.07;10.00;;;;;;;;;;5116868;28;20427;-59
2022/03/13 09:58:52;;;;;;;19.83;9.13;;;;;;;;;;5116815;28;20408;-58
2022/03/13 10:01:18;;;;;;;13.83;10.30;;;;;;;;;;5116780;28;20413;-55
2022/03/13 10:03:44;;;;;;;13.53;9.50;;;;;;;;;;5116818;28;20498;-59
2022/03/13 10:06:11;;;;;;;20.53;10.80;;;;;;;;;;5116954;28;20961;-59
2022/03/13 10:08:37;;;;;;;14.33;9.60;;;;;;;;;;5098318;28;20431;-56
2022/03/13 10:11:03;;;;;;;15.70;10.77;;;;;;;;;;5116702;28;20403;-61
2022/03/13 10:13:46;;;;;;;13.30;10.47;;;;;;;;;;5116597;28;20454;-61
2022/03/13 10:16:19;;;;;;;13.07;9.33;;;;;;;;;;5116738;28;20896;-59
2022/03/13 10:18:45;;;;;;;15.30;9.83;;;;;;;;;;5116403;28;20809;-61
2022/03/13 10:21:17;;;;;;;16.10;10.70;;;;;;;;;;5116655;28;20440;-56
2022/03/13 10:23:43;;;;;;;13.53;10.13;;;;;;;;;;5116332;28;20809;-61
2022/03/13 10:26:10;;;;;;;12.50;9.80;;;;;;;;;;5116481;28;20416;-60
2022/03/13 10:28:37;;;;;;;13.80;9.67;;;;;;;;;;5116275;28;20815;-59
2022/03/13 10:31:03;;;;;;;12.57;9.20;;;;;;;;;;5116162;28;20561;-56
2022/03/13 10:33:36;;;;;;;13.70;10.73;;;;;;;;;;5116069;28;20433;-58
2022/03/13 10:36:24;;;;;;;14.50;11.10;;;;;;;;;;5116131;28;20447;-60
2022/03/13 10:38:50;;;;;;;12.63;9.57;;;;;;;;;;5116161;28;20401;-56
2022/03/13 10:41:17;;;;;;;12.97;10.10;;;;;;;;;;5116051;28;20765;-60
2022/03/13 10:43:52;;;;;;;16.73;9.90;;;;;;;;;;5116098;28;20487;-57
2022/03/13 10:46:28;;;;;;;14.07;10.53;;;;;;;;;;5097646;28;20416;-56
2022/03/13 10:48:55;;;;;;;14.97;10.67;;;;;;;;;;5115926;28;20416;-57
2022/03/13 10:51:34;;;;;;;16.90;10.37;;;;;;;;;;5115884;28;20440;-57
2022/03/13 10:54:01;;;;;;;17.37;10.63;;;;;;;;;;5114821;28;20400;-62
2022/03/13 10:56:27;;;;;;;12.70;10.30;;;;;;;;;;5115817;28;20404;-57
2022/03/13 10:58:54;;;;;;;12.63;9.77;;;;;;;;;;5115667;28;20898;-60
2022/03/13 11:01:21;;;;;;;14.33;9.90;;;;;;;;;;5115846;28;20420;-59
2022/03/13 11:03:52;;;;;;;12.23;10.07;;;;;;;;;;5115604;28;20466;-56
2022/03/13 11:06:21;;;;;;;11.40;9.37;;;;;;;;;;5115578;28;20401;-53
2022/03/13 11:08:50;;;;;;;13.30;10.57;;;;;;;;;;5115645;28;20407;-62
2022/03/13 11:11:18;;;;;;;13.17;10.33;;;;;;;;;;5115703;28;20408;-58
2022/03/13 11:13:47;;;;;;;13.83;10.70;;;;;;;;;;5115718;28;20427;-58
2022/03/13 11:16:19;;;;;;;14.60;10.43;;;;;;;;;;5115541;28;20409;-55
2022/03/13 11:18:46;;;;;;;14.30;11.03;;;;;;;;;;5115286;28;20487;-56
2022/03/13 11:21:12;;;;;;;15.50;11.43;;;;;;;;;;5115715;28;20929;-54
2022/03/13 11:23:39;;;;;;;21.20;11.33;;;;;;;;;;5115404;28;20859;-56
2022/03/13 11:26:06;;;;;;;13.40;10.80;;;;;;;;;;5115211;28;20416;-56
2022/03/13 11:28:32;;;;;;;15.40;11.80;;;;;;;;;;5115226;28;20397;-55
2022/03/13 11:30:58;;;;;;;14.83;11.20;;;;;;;;;;5114971;28;20413;-55
2022/03/13 11:33:46;;;;;;;18.77;11.67;;;;;;;;;;5114898;28;20413;-53
2022/03/13 11:36:30;;;;;;;15.53;10.97;;;;;;;;;;5115071;28;20408;-55
2022/03/13 11:38:59;;;;;;;13.60;11.00;;;;;;;;;;5114861;28;20401;-54
2022/03/13 11:41:46;;;;;;;16.33;10.47;;;;;;;;;;5114736;28;20409;-54
2022/03/13 11:44:21;;;;;;;16.00;11.03;;;;;;;;;;5114879;28;20980;-55
2022/03/13 11:46:48;;;;;;;12.90;10.23;;;;;;;;;;5114730;28;20936;-57
2022/03/13 11:49:21;;;;;;;13.93;10.77;;;;;;;;;;5096314;28;20451;-55
2022/03/13 11:51:47;;;;;;;13.70;10.13;;;;;;;;;;5114583;28;20433;-55
2022/03/13 11:54:15;;;;;;;12.90;10.30;;;;;;;;;;5114678;28;20466;-55
2022/03/13 11:56:47;;;;;;;11.70;10.00;;;;;;;;;;5114661;28;20703;-55
2022/03/13 11:59:15;;;;;;;12.47;9.83;;;;;;;;;;5114573;28;20473;-59
2022/03/13 12:01:42;;;;;;;13.43;9.90;;;;;;;;;;5114479;28;20485;-62
2022/03/13 12:04:09;;;;;;;13.70;10.10;;;;;;;;;;5114516;28;20972;-57
2022/03/13 12:06:45;;;;;;;14.00;10.67;;;;;;;;;;5114065;28;20409;-57
2022/03/13 12:09:17;;;;;;;12.97;10.13;;;;;;;;;;5114557;28;20498;-62
2022/03/13 12:12:00;;;;;;;14.43;10.27;;;;;;;;;;5114234;28;20481;-60
2022/03/13 12:14:44;;;;;;;13.10;10.33;;;;;;;;;;5114412;28;20409;-62
2022/03/13 12:17:15;;;;;;;10.30;9.20;;;;;;;;;;5114239;28;20450;-54
2022/03/13 12:19:41;;;;;;;14.77;9.70;;;;;;;;;;5114109;28;20437;-59
2022/03/13 12:22:07;;;;;;;15.33;9.53;;;;;;;;;;5095914;28;20808;-59
2022/03/13 12:24:34;;;;;;;10.80;8.57;;;;;;;;;;5114003;28;20474;-59
2022/03/13 12:27:05;;;;;;;9.57;8.60;;;;;;;;;;5113939;28;20401;-61
2022/03/13 12:29:34;;;;;;;11.10;8.93;;;;;;;;;;5095472;28;20528;-58
2022/03/13 12:32:01;;;;;;;14.03;8.50;;;;;;;;;;5113869;28;20397;-57
2022/03/13 12:34:27;;;;;;;10.77;8.37;;;;;;;;;;5095665;28;21016;-54
2022/03/13 12:36:54;;;;;;;12.00;8.77;;;;;;;;;;5113701;28;20491;-57
2022/03/13 12:39:20;;;;;;;9.70;8.30;;;;;;;;;;5113578;28;20424;-58
2022/03/13 12:41:55;;;;;;;11.20;9.07;;;;;;;;;;5113605;28;20412;-60
2022/03/13 12:44:24;;;;;;;13.67;10.27;;;;;;;;;;5113712;28;20531;-58
2022/03/13 12:46:52;;;;;;;13.30;9.67;;;;;;;;;;5113497;28;20439;-59
2022/03/13 12:49:25;;;;;;;13.07;10.47;;;;;;;;;;5095175;28;20566;-61
2022/03/13 12:51:55;;;;;;;11.87;9.30;;;;;;;;;;5113550;28;20520;-64
2022/03/13 12:54:20;;;;;;;12.80;9.57;;;;;;;;;;5113525;28;20695;-57
2022/03/13 12:56:51;;;;;;;10.43;9.20;;;;;;;;;;5113393;28;20405;-59
2022/03/13 12:59:27;;;;;;;13.30;10.30;;;;;;;;;;5113552;28;20166;-60
2022/03/13 13:02:10;;;;;;;12.17;9.90;;;;;;;;;;5113279;28;20393;-57
2022/03/13 13:04:40;;;;;;;12.67;9.37;;;;;;;;;;5113138;28;20509;-57
2022/03/13 13:07:10;;;;;;;11.40;10.07;;;;;;;;;;5113133;28;20393;-57
2022/03/13 13:09:36;;;;;;;11.83;9.60;;;;;;;;;;5113210;28;20428;-58
2022/03/13 13:12:03;;;;;;;12.23;10.00;;;;;;;;;;5113005;28;20758;-57
2022/03/13 13:14:30;;;;;;;14.17;9.83;;;;;;;;;;5113080;28;20405;-58
2022/03/13 13:16:57;;;;;;;12.97;10.37;;;;;;;;;;5112664;28;20458;-54
2022/03/13 13:19:24;;;;;;;17.27;10.70;;;;;;;;;;5112945;28;20539;-56
2022/03/13 13:22:00;;;;;;;12.13;10.00;;;;;;;;;;5113232;28;20420;-55
2022/03/13 13:24:27;;;;;;;12.83;10.80;;;;;;;;;;5112904;28;20448;-56
2022/03/13 13:26:53;;;;;;;17.63;11.80;;;;;;;;;;5112940;28;20409;-56
2022/03/13 13:29:31;;;;;;;16.43;10.40;;;;;;;;;;5112976;28;20795;-55
2022/03/13 13:32:16;;;;;;;13.03;10.20;;;;;;;;;;5112746;28;20478;-57
2022/03/13 13:34:44;;;;;;;13.13;10.07;;;;;;;;;;5112997;28;20385;-55
2022/03/13 13:37:13;;;;;;;15.93;10.23;;;;;;;;;;5113295;28;20977;-54
2022/03/13 13:39:39;;;;;;;13.80;8.73;;;;;;;;;;5112967;28;20388;-56
2022/03/13 13:42:05;;;;;;;12.40;8.93;;;;;;;;;;5094892;28;20421;-56
2022/03/13 13:44:31;;;;;;;14.57;9.50;;;;;;;;;;5112700;28;20457;-56
2022/03/13 13:47:06;;;;;;;10.17;9.13;;;;;;;;;;5112694;28;20397;-56
2022/03/13 13:49:33;;;;;;;10.13;9.07;;;;;;;;;;5112409;28;20461;-55
2022/03/13 13:52:12;;;;;;;12.00;8.77;;;;;;;;;;5094513;28;20404;-55
2022/03/13 13:54:38;;;;;;;11.40;9.00;;;;;;;;;;5113008;28;20461;-57
2022/03/13 13:57:04;;;;;;;9.80;8.80;;;;;;;;;;5112644;28;20792;-57
2022/03/13 13:59:34;;;;;;;11.60;8.83;;;;;;;;;;5112746;28;20643;-56
2022/03/13 14:02:03;;;;;;;12.77;8.50;;;;;;;;;;5112611;28;20968;-58
2022/03/13 14:04:30;;;;;;;9.57;8.63;;;;;;;;;;5112629;28;20513;-59
2022/03/13 14:06:57;;;;;;;13.50;9.03;;;;;;;;;;5112628;28;20411;-57
2022/03/13 14:09:23;;;;;;;11.33;9.40;;;;;;;;;;5094442;28;20425;-56
2022/03/13 14:11:49;;;;;;;15.13;8.97;;;;;;;;;;5112550;28;20770;-59
2022/03/13 14:14:15;;;;;;;13.03;9.40;;;;;;;;;;5112506;28;20405;-60
2022/03/13 14:16:43;;;;;;;9.70;8.70;;;;;;;;;;5112629;28;20417;-60
2022/03/13 14:19:09;;;;;;;12.47;8.13;;;;;;;;;;5112446;28;20484;-59
2022/03/13 14:21:36;;;;;;;12.40;8.83;;;;;;;;;;5112417;28;20967;-57
2022/03/13 14:24:02;;;;;;;12.47;8.80;;;;;;;;;;5112478;28;20976;-57
2022/03/13 14:26:28;;;;;;;10.83;8.37;;;;;;;;;;5112310;28;20549;-56
2022/03/13 14:28:55;;;;;;;11.23;9.07;;;;;;;;;;5113313;28;20445;-58